Terminal Aerodrome Forecast
Issued by NWS

Home | Current Version | Previous Version | Text Only | Print | Product List | Glossary Off
Versions: 1 2 3 4 5 6 7 8 9 10 11 12 13

407
FTUS43 KABR 251114 AAB
TAFPIR
TAF AMD
KPIR 251114Z 2511/2606 30027G37KT P6SM OVC035
     FM251300 30027G37KT P6SM SCT140
     FM252300 32018G27KT P6SM SKC
     FM260200 31011KT P6SM SKC=

USA.gov is the U.S. government's official web portal to all federal, state and local government web resources and services.